NEOK1: Neosho R at Neosho Rapids, KS

Data processed at Tue Aug 21 2018 23:36


All information presented herein is the property of the government of the United States of America and may be revised or deleted at any time without prior notice.
Dissemination of this information without the expressed written consent of the Public Affairs Office, Tulsa District U.S. Army Corps of Engineers is strictly prohibited.
These data are gathered electronically and, as presented, have not undergone any form of quality control. These data are not guaranteed to be valid or correct.
Go to home page.
Go to station list.

Upstream stations:

Downstream station:
Previous Day
Next Day
Current Day
    
SHEF ID:       NEOK1     NEOSHO R AT NEOSHO RAPIDS, KS
STATION TYPE:  

                STAGE  RIV-FLOW  BAT-LOAD
                   ft       cfs      volt
              Ccp-Rev   Ccp-Rev   Ccp-Rev
(US/Central)
08/21 00:00      3.66      1302     12.89
08/21 01:00      3.54      1240     12.89
08/21 02:00      3.45      1193     12.89
08/21 03:00      3.28      1108     12.89
08/21 04:00      3.22      1078     12.89
08/21 05:00      3.10      1019     12.89
08/21 06:00      2.99       966     12.83
08/21 07:00      2.89       919     12.83
08/21 08:00      2.78       867     12.89
08/21 09:00      2.70       830     13.36
08/21 10:00      2.58       776     13.71
08/21 11:00      2.49       736     13.65
08/21 12:00      2.39       696     13.65
08/21 13:00      2.31       663     13.59
08/21 14:00      2.24       636     13.59
08/21 15:00      2.16       604     13.48
08/21 16:00      2.08       574     13.48
08/21 17:00      2.04       558     13.53
08/21 18:00      1.94       521     13.53
08/21 19:00      1.89       502     13.42
08/21 20:00      1.84       484     13.00
08/21 21:00      1.79       466     12.95
08/21 22:00      1.74       448     12.89
08/21 23:00      1.71       437     12.89